Pagina principală
METAR-TAF:

METAR-TAF

Aeroporturi :

Weno, Micronezia

Latitudine: 07-28N, longitudine: 151-51E, elevație: 3 m

Observații meteo curente

Raportul a fost făcut în urmă cu 2 ore și 9 de minute, la 23:52 UTC
Vânt 10 kt de la Est/Sud-est
Temperatură 31°C
Umiditate 71%
Presiune 1008 hPa
Vizibilitate: 24.1 km
Nori împrăștiați la o înălțime de 1200 picior, Cumulonimbus.
Nori fragmentați la o înălțime de 30000 picior
averse în apropiere

METAR: PTKK 102352Z 12010KT 15SM VCSH SCT012CB BKN300 31/25 A2978 RMK VCSH SE AND NE CB ALQDS MOV NW SLP086 8/301 T03110251 10311 20272 50008

Ora: 12:01 (02:01 UTC)

Prognoză

Raportul a fost făcut în urmă cu 2 ore și 39 de minute, la 23:22 UTC
Prognoză valabilă de la 10 ora 00 UTC la 10 ora 24 UTC
Vânt 10 kt de la Est
Vizibilitate: 10 km
Nori împrăștiați la o înălțime de 1400 picior
Nori împrăștiați la o înălțime de 12000 picior
averse în apropiere

TAF: PTKK 092322Z 1000/1024 09010KT P6SM VCSH SCT014 SCT120

Observații și prognoze meteo pentru peste 4.000 de aeroporturi (rapoarte METAR și TAF).

Stațiile disponibile sunt reprezentate pe hartă prin puncte galbene și roșii.

Țineți indicatorul mouse-ului pe punctul dorit pentru a vedea denumirea stației.

Apoi, faceți clic pentru a vedea observațiile și prognozele meteorologice.

Pentru a schimba harta: Pentru mărire, faceți clic pe butoanele verzi cu cruce neagră; pentru micșorare, pe butonul verde cu o liniuță; pentru hărți învecinate, pe săgețile verzi.


METAR-TAF: